createdAt,value
2018-06-29T00:00:41.472Z,942.12
2018-06-29T00:01:49.608Z,942.09
2018-06-29T00:02:57.541Z,942.09
2018-06-29T00:04:05.632Z,942.08
2018-06-29T00:05:13.687Z,942.09
2018-06-29T00:06:21.766Z,942.10
2018-06-29T00:07:29.871Z,942.13
2018-06-29T00:08:37.898Z,942.11
2018-06-29T00:09:45.943Z,942.12
2018-06-29T00:10:54.031Z,942.11
2018-06-29T00:12:02.091Z,942.08
2018-06-29T00:13:10.207Z,942.10
2018-06-29T00:14:18.205Z,942.11
2018-06-29T00:15:26.281Z,942.07
2018-06-29T00:16:34.480Z,942.11
2018-06-29T00:17:42.463Z,942.11
2018-06-29T00:18:50.488Z,942.09
2018-06-29T00:19:58.569Z,942.10
2018-06-29T00:21:06.629Z,942.09
2018-06-29T00:22:14.694Z,942.07
2018-06-29T00:23:22.864Z,942.04
2018-06-29T00:24:30.824Z,942.09
2018-06-29T00:25:38.868Z,942.09
2018-06-29T00:26:46.929Z,942.05
2018-06-29T00:27:55.095Z,942.05
2018-06-29T00:29:03.112Z,942.02
2018-06-29T00:30:11.141Z,942.06
2018-06-29T00:31:19.206Z,942.04
2018-06-29T00:32:27.299Z,942.05
2018-06-29T00:33:35.334Z,942.02
2018-06-29T00:34:43.515Z,942.02
2018-06-29T00:35:51.477Z,942.04
2018-06-29T00:36:59.516Z,942.00
2018-06-29T00:38:07.576Z,942.01
2018-06-29T00:39:15.680Z,941.98
2018-06-29T00:40:23.775Z,941.99
2018-06-29T00:41:31.795Z,941.98
2018-06-29T00:42:39.860Z,941.97
2018-06-29T00:43:47.913Z,941.95
2018-06-29T00:44:55.984Z,941.96
2018-06-29T00:46:04.176Z,941.99
2018-06-29T00:47:12.115Z,941.99
2018-06-29T00:48:20.232Z,941.98
2018-06-29T00:49:28.250Z,942.00
2018-06-29T00:50:36.324Z,942.06
2018-06-29T00:51:44.434Z,942.01
2018-06-29T00:52:52.458Z,941.99
2018-06-29T00:54:00.511Z,942.02
2018-06-29T00:55:08.582Z,941.99
2018-06-29T00:56:16.637Z,941.98
2018-06-29T00:57:24.812Z,941.93
2018-06-29T00:58:32.781Z,941.95
2018-06-29T00:59:40.840Z,941.95
2018-06-29T01:00:48.893Z,941.92
2018-06-29T01:01:56.961Z,941.90
2018-06-29T01:03:05.106Z,941.90
2018-06-29T01:04:13.110Z,941.90
2018-06-29T01:05:21.172Z,941.91
2018-06-29T01:06:29.256Z,941.92
2018-06-29T01:07:37.331Z,941.94
2018-06-29T01:08:45.378Z,941.94
2018-06-29T01:09:53.437Z,941.96
2018-06-29T01:11:01.513Z,941.96
2018-06-29T01:12:09.559Z,941.97
2018-06-29T01:13:17.672Z,941.94
2018-06-29T01:14:25.704Z,941.99
2018-06-29T01:15:33.785Z,941.94
2018-06-29T01:16:41.840Z,941.93
2018-06-29T01:17:49.933Z,941.95
2018-06-29T01:18:57.962Z,941.93
2018-06-29T01:20:06.040Z,941.97
2018-06-29T01:21:14.105Z,941.97
2018-06-29T01:22:22.163Z,941.99
2018-06-29T01:23:30.222Z,941.96
2018-06-29T01:24:38.296Z,941.99
2018-06-29T01:25:46.361Z,942.01
2018-06-29T01:26:54.429Z,942.00
2018-06-29T01:28:02.605Z,941.94
2018-06-29T01:29:10.555Z,941.98
2018-06-29T01:30:18.631Z,941.96
2018-06-29T01:31:26.681Z,941.93
2018-06-29T01:32:34.813Z,941.91
2018-06-29T01:33:42.867Z,941.90
2018-06-29T01:34:50.902Z,941.90
2018-06-29T01:35:58.957Z,941.86
2018-06-29T01:37:06.996Z,941.86
2018-06-29T01:38:15.095Z,941.88
2018-06-29T01:39:23.275Z,941.85
2018-06-29T01:40:31.223Z,941.79
2018-06-29T01:41:39.281Z,941.81
2018-06-29T01:42:47.325Z,941.78
2018-06-29T01:43:55.401Z,941.81
2018-06-29T01:45:03.517Z,941.77
2018-06-29T01:46:11.529Z,941.82
2018-06-29T01:47:19.620Z,941.75
2018-06-29T01:48:27.654Z,941.77
2018-06-29T01:49:35.736Z,941.76
2018-06-29T01:50:43.911Z,941.74
2018-06-29T01:51:51.895Z,941.72
2018-06-29T01:52:59.938Z,941.71
2018-06-29T01:54:08.005Z,941.71
2018-06-29T01:55:16.073Z,941.69
2018-06-29T01:56:24.181Z,941.71
2018-06-29T01:57:32.207Z,941.66
2018-06-29T01:58:40.267Z,941.64
2018-06-29T01:59:48.329Z,941.62
2018-06-29T02:00:56.401Z,941.58
2018-06-29T02:02:04.576Z,941.58
2018-06-29T02:03:12.576Z,941.61
2018-06-29T02:04:20.595Z,941.58
2018-06-29T02:05:28.670Z,941.57
2018-06-29T02:06:36.738Z,941.58
2018-06-29T02:07:44.894Z,941.56
2018-06-29T02:08:52.861Z,941.52
2018-06-29T02:10:00.933Z,941.57
2018-06-29T02:11:08.993Z,941.54
2018-06-29T02:12:17.032Z,941.61
2018-06-29T02:13:25.171Z,941.61
2018-06-29T02:14:33.193Z,941.59
2018-06-29T02:15:41.256Z,941.58
2018-06-29T02:16:49.316Z,941.61
2018-06-29T02:17:57.407Z,941.54
2018-06-29T02:19:05.451Z,941.54
2018-06-29T02:20:13.514Z,941.47
2018-06-29T02:21:21.583Z,941.45
2018-06-29T02:22:29.700Z,941.45
2018-06-29T02:23:37.692Z,941.44
2018-06-29T02:24:45.773Z,941.46
2018-06-29T02:25:53.832Z,941.46
2018-06-29T02:27:01.903Z,941.46
2018-06-29T02:28:10.090Z,941.48
2018-06-29T02:29:18.034Z,941.48
2018-06-29T02:30:26.128Z,941.51
2018-06-29T02:31:34.171Z,941.56
2018-06-29T02:32:42.279Z,941.55
2018-06-29T02:33:50.422Z,941.57
2018-06-29T02:34:58.375Z,941.57
2018-06-29T02:36:06.448Z,941.56
2018-06-29T02:37:14.507Z,941.51
2018-06-29T02:38:22.560Z,941.53
2018-06-29T02:39:30.746Z,941.49
2018-06-29T02:40:38.691Z,941.55
2018-06-29T02:41:46.755Z,941.53
2018-06-29T02:42:54.832Z,941.52
2018-06-29T02:44:02.894Z,941.46
2018-06-29T02:45:10.998Z,941.46
2018-06-29T02:46:19.018Z,941.44
2018-06-29T02:47:27.058Z,941.45
2018-06-29T02:48:35.162Z,941.49
2018-06-29T02:49:43.227Z,941.47
2018-06-29T02:50:51.403Z,941.49
2018-06-29T02:51:59.339Z,941.50
2018-06-29T02:53:07.389Z,941.50
2018-06-29T02:54:15.480Z,941.50
2018-06-29T02:55:23.542Z,941.51
2018-06-29T02:56:31.720Z,941.48
2018-06-29T02:57:39.697Z,941.53
2018-06-29T02:58:47.735Z,941.59
2018-06-29T02:59:55.822Z,941.57
2018-06-29T03:01:03.894Z,941.54
2018-06-29T03:02:12.070Z,941.52
2018-06-29T03:03:20.071Z,941.51
2018-06-29T03:04:28.096Z,941.53
2018-06-29T03:05:36.160Z,941.53
2018-06-29T03:06:44.237Z,941.51
2018-06-29T03:07:52.337Z,941.57
2018-06-29T03:09:00.374Z,941.56
2018-06-29T03:10:08.440Z,941.59
2018-06-29T03:11:16.493Z,941.53
2018-06-29T03:12:24.562Z,941.53
2018-06-29T03:13:32.627Z,941.51
2018-06-29T03:14:40.699Z,941.56
2018-06-29T03:15:48.761Z,941.52
2018-06-29T03:16:56.834Z,941.55
2018-06-29T03:18:05.017Z,941.57
2018-06-29T03:19:12.977Z,941.51
2018-06-29T03:20:21.042Z,941.51
2018-06-29T03:21:29.111Z,941.50
2018-06-29T03:22:37.212Z,941.51
2018-06-29T03:23:45.233Z,941.57
2018-06-29T03:24:53.312Z,941.56
2018-06-29T03:26:01.360Z,941.58
2018-06-29T03:27:09.433Z,941.63
2018-06-29T03:28:17.552Z,941.65
2018-06-29T03:29:25.570Z,941.61
2018-06-29T03:30:33.639Z,941.68
2018-06-29T03:31:41.704Z,941.61
2018-06-29T03:32:49.776Z,941.61
2018-06-29T03:33:57.937Z,941.58
2018-06-29T03:35:05.903Z,941.56
2018-06-29T03:36:13.966Z,941.48
2018-06-29T03:37:22.029Z,941.48
2018-06-29T03:38:30.089Z,941.49
2018-06-29T03:39:38.275Z,941.50
2018-06-29T03:40:46.223Z,941.48
2018-06-29T03:41:54.298Z,941.53
2018-06-29T03:43:02.373Z,941.54
2018-06-29T03:44:10.417Z,941.53
2018-06-29T03:45:18.535Z,941.51
2018-06-29T03:46:26.561Z,941.53
2018-06-29T03:47:34.650Z,941.50
2018-06-29T03:48:42.690Z,941.55
2018-06-29T03:49:50.878Z,941.46
2018-06-29T03:50:58.940Z,941.44
2018-06-29T03:52:06.883Z,941.43
2018-06-29T03:53:14.967Z,941.40
2018-06-29T03:54:23.031Z,941.47
2018-06-29T03:55:31.096Z,941.38
2018-06-29T03:56:39.484Z,941.33
2018-06-29T03:57:47.204Z,941.31
2018-06-29T03:58:55.330Z,941.29
2018-06-29T04:00:03.392Z,941.32
2018-06-29T04:01:11.946Z,941.30
2018-06-29T04:02:19.607Z,941.33
2018-06-29T04:03:27.533Z,941.31
2018-06-29T04:04:35.622Z,941.29
2018-06-29T04:05:43.748Z,941.33
2018-06-29T04:06:51.764Z,941.32
2018-06-29T04:08:00.006Z,941.36
2018-06-29T04:09:07.877Z,941.27
2018-06-29T04:10:17.539Z,941.29
2018-06-29T04:11:25.754Z,941.29
2018-06-29T04:12:33.812Z,941.31
2018-06-29T04:13:41.757Z,941.33
2018-06-29T04:14:49.829Z,941.35
2018-06-29T04:15:57.895Z,941.30
2018-06-29T04:17:05.955Z,941.36
2018-06-29T04:18:14.076Z,941.29
2018-06-29T04:19:22.170Z,941.29
2018-06-29T04:20:30.153Z,941.28
2018-06-29T04:21:40.528Z,941.27
2018-06-29T04:22:48.604Z,941.28
2018-06-29T04:23:57.070Z,941.28
2018-06-29T04:25:04.643Z,941.30
2018-06-29T04:26:12.695Z,941.31
2018-06-29T04:27:21.107Z,941.28
2018-06-29T04:28:28.827Z,941.30
2018-06-29T04:29:36.997Z,941.28
2018-06-29T04:30:44.964Z,941.32
2018-06-29T04:31:53.032Z,941.35
2018-06-29T04:33:01.092Z,941.37
2018-06-29T04:34:09.174Z,941.33
2018-06-29T04:35:17.314Z,941.35
2018-06-29T04:36:25.292Z,941.28
2018-06-29T04:37:34.412Z,941.28
2018-06-29T04:38:42.417Z,941.27
2018-06-29T04:39:50.511Z,941.29
2018-06-29T04:40:58.744Z,941.31
2018-06-29T04:42:06.628Z,941.33
2018-06-29T04:43:14.704Z,941.40
2018-06-29T04:44:22.771Z,941.39
2018-06-29T04:45:30.821Z,941.39
2018-06-29T04:46:38.937Z,941.41
2018-06-29T04:47:46.921Z,941.42
2018-06-29T04:48:55.640Z,941.45
2018-06-29T04:50:03.087Z,941.42
2018-06-29T04:51:11.159Z,941.41
2018-06-29T04:52:19.326Z,941.38
2018-06-29T04:53:27.302Z,941.37
2018-06-29T04:54:35.349Z,941.41
2018-06-29T04:55:44.069Z,941.34
2018-06-29T04:56:51.490Z,941.33
2018-06-29T04:57:59.594Z,941.36
2018-06-29T04:59:07.591Z,941.37
2018-06-29T05:00:15.679Z,941.31
2018-06-29T05:01:23.741Z,941.31
2018-06-29T05:02:31.863Z,941.30
2018-06-29T05:03:39.873Z,941.32
2018-06-29T05:04:47.949Z,941.32
2018-06-29T05:05:56.031Z,941.36
2018-06-29T05:07:04.077Z,941.33
2018-06-29T05:08:12.214Z,941.38
2018-06-29T05:09:20.223Z,941.34
2018-06-29T05:10:28.295Z,941.33
2018-06-29T05:11:36.369Z,941.34
2018-06-29T05:12:44.476Z,941.34
2018-06-29T05:13:52.495Z,941.39
2018-06-29T05:15:00.570Z,941.32
2018-06-29T05:16:08.638Z,941.41
2018-06-29T05:17:16.699Z,941.36
2018-06-29T05:18:24.821Z,941.40
2018-06-29T05:19:32.832Z,941.42
2018-06-29T05:20:40.895Z,941.41
2018-06-29T05:21:49.019Z,941.49
2018-06-29T05:22:57.098Z,941.45
2018-06-29T05:24:05.127Z,941.48
2018-06-29T05:25:13.155Z,941.51
2018-06-29T05:26:21.233Z,941.49
2018-06-29T05:27:29.346Z,941.52
2018-06-29T05:28:37.384Z,941.49
2018-06-29T05:29:45.427Z,941.51
2018-06-29T05:30:53.476Z,941.51
2018-06-29T05:32:01.556Z,941.48
2018-06-29T05:33:09.683Z,941.45
2018-06-29T05:34:17.672Z,941.38
2018-06-29T05:35:25.756Z,941.40
2018-06-29T05:36:33.809Z,941.45
2018-06-29T05:37:42.001Z,941.46
2018-06-29T05:38:49.957Z,941.47
2018-06-29T05:39:58.039Z,941.45
2018-06-29T05:41:06.089Z,941.48
2018-06-29T05:42:14.149Z,941.51
2018-06-29T05:43:22.268Z,941.43
2018-06-29T05:44:31.711Z,941.44
2018-06-29T05:45:39.757Z,941.43
2018-06-29T05:46:47.824Z,941.43
2018-06-29T05:47:55.885Z,941.45
2018-06-29T05:49:04.073Z,941.49
2018-06-29T05:50:12.011Z,941.44
2018-06-29T05:51:20.081Z,941.43
2018-06-29T05:52:28.219Z,941.48
2018-06-29T05:53:36.248Z,941.42
2018-06-29T05:54:44.420Z,941.49
2018-06-29T05:55:52.361Z,941.48
2018-06-29T05:57:00.405Z,941.50
2018-06-29T05:58:08.485Z,941.50
2018-06-29T05:59:16.576Z,941.52
2018-06-29T06:00:24.731Z,941.51
2018-06-29T06:01:32.693Z,941.47
2018-06-29T06:02:40.774Z,941.55
2018-06-29T06:03:48.831Z,941.54
2018-06-29T06:04:56.875Z,941.53
2018-06-29T06:06:05.099Z,941.57
2018-06-29T06:07:13.035Z,941.59
2018-06-29T06:08:21.152Z,941.63
2018-06-29T06:09:29.168Z,941.67
2018-06-29T06:10:37.204Z,941.61
2018-06-29T06:11:45.407Z,941.62
2018-06-29T06:12:53.368Z,941.76
2018-06-29T06:14:01.440Z,941.80
2018-06-29T06:15:09.500Z,941.80
2018-06-29T06:16:17.541Z,941.71
2018-06-29T06:17:25.756Z,941.68
2018-06-29T06:18:33.706Z,941.61
2018-06-29T06:19:41.787Z,941.64
2018-06-29T06:20:49.837Z,941.60
2018-06-29T06:21:57.978Z,941.54
2018-06-29T06:23:06.047Z,941.56
2018-06-29T06:24:14.045Z,941.60
2018-06-29T06:25:22.115Z,941.62
2018-06-29T06:26:30.183Z,941.60
2018-06-29T06:27:38.283Z,941.59
2018-06-29T06:28:46.327Z,941.56
2018-06-29T06:29:54.380Z,941.56
2018-06-29T06:31:02.447Z,941.57
2018-06-29T06:32:10.514Z,941.53
2018-06-29T06:33:18.660Z,941.55
2018-06-29T06:34:26.662Z,941.57
2018-06-29T06:35:34.732Z,941.62
2018-06-29T06:36:42.797Z,941.65
2018-06-29T06:37:50.907Z,941.66
2018-06-29T06:38:59.040Z,941.65
2018-06-29T06:40:06.977Z,941.59
2018-06-29T06:41:15.067Z,941.58
2018-06-29T06:42:23.136Z,941.55
2018-06-29T06:43:31.204Z,941.56
2018-06-29T06:44:39.271Z,941.63
2018-06-29T06:45:47.324Z,941.62
2018-06-29T06:46:55.415Z,941.82
2018-06-29T06:48:03.584Z,941.92
2018-06-29T06:49:11.535Z,941.87
2018-06-29T06:50:19.621Z,941.84
2018-06-29T06:51:27.662Z,941.86
2018-06-29T06:52:35.856Z,942.01
2018-06-29T06:53:43.933Z,941.95
2018-06-29T06:54:51.998Z,941.92
2018-06-29T06:55:59.956Z,941.88
2018-06-29T06:57:08.041Z,942.00
2018-06-29T06:58:16.231Z,942.07
2018-06-29T06:59:24.230Z,942.01
2018-06-29T07:00:32.239Z,941.83
2018-06-29T07:01:40.319Z,941.88
2018-06-29T07:02:48.398Z,941.89
2018-06-29T07:03:56.562Z,941.85
2018-06-29T07:05:04.530Z,941.83
2018-06-29T07:06:12.593Z,941.87
2018-06-29T07:07:20.676Z,941.81
2018-06-29T07:08:28.725Z,941.89
2018-06-29T07:09:36.890Z,941.85
2018-06-29T07:10:44.912Z,941.89
2018-06-29T07:11:52.934Z,942.14
2018-06-29T07:13:01.003Z,942.14
2018-06-29T07:14:09.085Z,941.98
2018-06-29T07:15:17.231Z,942.04
2018-06-29T07:16:25.206Z,941.93
2018-06-29T07:17:33.288Z,941.89
2018-06-29T07:18:41.377Z,941.95
2018-06-29T07:19:49.431Z,942.08
2018-06-29T07:20:57.582Z,942.09
2018-06-29T07:22:05.573Z,942.27
2018-06-29T07:23:13.642Z,942.28
2018-06-29T07:24:21.751Z,942.29
2018-06-29T07:25:29.773Z,942.46
2018-06-29T07:26:37.948Z,942.38
2018-06-29T07:27:45.928Z,942.27
2018-06-29T07:28:53.990Z,942.16
2018-06-29T07:30:02.136Z,942.13
2018-06-29T07:31:10.135Z,942.20
2018-06-29T07:32:18.303Z,942.08
2018-06-29T07:33:26.277Z,942.01
2018-06-29T07:34:34.351Z,942.02
2018-06-29T07:36:53.105Z,942.14
2018-06-29T07:38:01.217Z,942.41
2018-06-29T07:39:09.235Z,942.71
2018-06-29T07:40:17.305Z,942.50
2018-06-29T07:41:25.384Z,942.63
2018-06-29T07:42:33.580Z,942.61
2018-06-29T07:43:41.532Z,942.86
2018-06-29T07:44:49.589Z,942.68
2018-06-29T07:45:57.653Z,942.15
2018-06-29T07:47:05.746Z,943.18
2018-06-29T07:48:13.924Z,943.36
2018-06-29T07:49:21.878Z,943.72
2018-06-29T07:50:29.962Z,942.91
2018-06-29T07:51:38.045Z,942.42
2018-06-29T07:52:46.112Z,942.59
2018-06-29T07:53:54.309Z,942.86
2018-06-29T07:55:02.253Z,942.69
2018-06-29T07:56:10.361Z,942.65
2018-06-29T07:57:18.409Z,942.19
2018-06-29T07:58:26.727Z,942.56
2018-06-29T07:59:34.670Z,942.07
2018-06-29T08:00:42.636Z,942.09
2018-06-29T08:01:50.702Z,942.04
2018-06-29T08:02:58.769Z,941.95
2018-06-29T08:04:06.827Z,942.03
2018-06-29T08:05:15.038Z,942.00
2018-06-29T08:06:22.987Z,941.96
2018-06-29T08:07:31.085Z,942.00
2018-06-29T08:08:39.144Z,941.92
2018-06-29T08:09:47.193Z,942.04
2018-06-29T08:10:55.411Z,941.97
2018-06-29T08:12:03.371Z,941.99
2018-06-29T08:13:11.493Z,941.95
2018-06-29T08:14:19.511Z,941.99
2018-06-29T08:15:27.549Z,941.97
2018-06-29T08:16:35.754Z,941.97
2018-06-29T08:17:43.716Z,942.03
2018-06-29T08:18:51.803Z,942.12
2018-06-29T08:19:59.872Z,942.23
2018-06-29T08:21:07.939Z,942.24
2018-06-29T08:22:16.123Z,942.16
2018-06-29T08:23:24.088Z,942.23
2018-06-29T08:24:32.156Z,942.34
2018-06-29T08:25:40.229Z,942.38
2018-06-29T08:26:48.295Z,942.22
2018-06-29T08:27:56.404Z,942.22
2018-06-29T08:29:04.444Z,942.18
2018-06-29T08:30:12.501Z,942.23
2018-06-29T08:31:20.580Z,942.35
2018-06-29T08:32:28.709Z,942.24
2018-06-29T08:33:36.712Z,942.28
2018-06-29T08:34:44.796Z,942.19
2018-06-29T08:35:52.867Z,942.11
2018-06-29T08:37:00.946Z,942.08
2018-06-29T08:38:09.122Z,942.02
2018-06-29T08:39:17.058Z,942.00
2018-06-29T08:40:25.148Z,941.99
2018-06-29T08:41:33.231Z,942.05
2018-06-29T08:42:41.417Z,941.95
2018-06-29T08:43:49.478Z,941.96
2018-06-29T08:44:57.420Z,942.01
2018-06-29T08:46:05.510Z,942.09
2018-06-29T08:47:13.605Z,942.13
2018-06-29T08:48:21.662Z,942.04
2018-06-29T08:49:29.896Z,942.13
2018-06-29T08:50:37.805Z,942.06
2018-06-29T08:51:45.872Z,942.09
2018-06-29T08:52:53.947Z,942.19
2018-06-29T08:54:02.096Z,942.19
2018-06-29T08:55:10.256Z,942.14
2018-06-29T08:56:18.156Z,942.25
2018-06-29T08:57:26.224Z,942.30
2018-06-29T08:58:34.311Z,942.24
2018-06-29T08:59:42.382Z,942.28
2018-06-29T09:00:50.569Z,942.21
2018-06-29T09:01:58.522Z,942.22
2018-06-29T09:03:06.589Z,942.40
2018-06-29T09:04:14.683Z,942.22
2018-06-29T09:05:22.746Z,942.17
2018-06-29T09:06:30.945Z,942.16
2018-06-29T09:07:38.892Z,942.21
2018-06-29T09:08:46.948Z,942.12
2018-06-29T09:09:55.037Z,942.07
2018-06-29T09:11:03.124Z,942.16
2018-06-29T09:12:11.294Z,942.35
2018-06-29T09:13:19.364Z,942.49
2018-06-29T09:14:27.307Z,942.19
2018-06-29T09:15:35.391Z,942.26
2018-06-29T09:16:43.462Z,942.15
2018-06-29T09:17:51.593Z,942.16
2018-06-29T09:18:59.637Z,942.09
2018-06-29T09:20:07.663Z,942.20
2018-06-29T09:21:15.754Z,942.10
2018-06-29T09:22:23.831Z,942.04
2018-06-29T09:23:31.889Z,942.10
2018-06-29T09:24:39.960Z,942.08
2018-06-29T09:25:48.038Z,942.07
2018-06-29T09:26:56.105Z,942.05
2018-06-29T09:28:04.303Z,942.10
2018-06-29T09:29:12.269Z,942.20
2018-06-29T09:30:20.335Z,942.04
2018-06-29T09:31:28.434Z,942.28
2018-06-29T09:32:36.481Z,942.17
2018-06-29T09:33:44.662Z,942.25
2018-06-29T09:34:52.601Z,942.20
2018-06-29T09:36:00.678Z,942.17
2018-06-29T09:37:08.748Z,942.18
2018-06-29T09:38:16.831Z,942.16
2018-06-29T09:39:25.011Z,942.18
2018-06-29T09:40:32.974Z,942.07
2018-06-29T09:41:41.043Z,942.16
2018-06-29T09:42:49.104Z,942.40
2018-06-29T09:43:57.338Z,942.33
2018-06-29T09:45:05.387Z,942.54
2018-06-29T09:46:13.329Z,942.71
2018-06-29T09:47:21.411Z,942.67
2018-06-29T09:48:29.475Z,942.62
2018-06-29T09:49:37.520Z,942.59
2018-06-29T09:50:45.731Z,942.51
2018-06-29T09:51:53.679Z,942.48
2018-06-29T09:53:01.776Z,942.44
2018-06-29T09:54:09.842Z,942.09
2018-06-29T09:55:17.906Z,942.28
2018-06-29T09:56:26.090Z,942.36
2018-06-29T09:57:34.046Z,942.39
2018-06-29T09:58:42.123Z,942.27
2018-06-29T09:59:50.300Z,942.11
2018-06-29T10:00:58.332Z,942.18
2018-06-29T10:02:06.399Z,942.40
2018-06-29T10:03:14.423Z,942.39
2018-06-29T10:04:22.492Z,942.40
2018-06-29T10:05:30.561Z,942.13
2018-06-29T10:06:38.646Z,942.10
2018-06-29T10:07:46.754Z,942.10
2018-06-29T10:08:54.785Z,942.25
2018-06-29T10:10:02.878Z,941.98
2018-06-29T10:11:10.940Z,942.02
2018-06-29T10:12:19.009Z,941.92
2018-06-29T10:13:27.115Z,942.33
2018-06-29T10:14:35.146Z,942.24
2018-06-29T10:15:43.346Z,942.03
2018-06-29T10:16:51.321Z,942.26
2018-06-29T10:17:59.431Z,942.02
2018-06-29T10:19:07.431Z,941.98
2018-06-29T10:20:15.618Z,941.90
2018-06-29T10:21:23.593Z,942.06
2018-06-29T10:22:31.842Z,942.01
2018-06-29T10:23:39.747Z,942.01
2018-06-29T10:24:47.818Z,942.31
2018-06-29T10:25:55.891Z,942.01
2018-06-29T10:27:03.969Z,942.05
2018-06-29T10:28:12.282Z,942.13
2018-06-29T10:29:20.110Z,941.99
2018-06-29T10:30:28.183Z,941.96
2018-06-29T10:31:36.376Z,942.19
2018-06-29T10:32:44.335Z,942.37
2018-06-29T10:33:52.528Z,942.16
2018-06-29T10:35:00.482Z,942.16
2018-06-29T10:36:08.606Z,942.34
2018-06-29T10:37:16.613Z,942.25
2018-06-29T10:38:24.704Z,942.22
2018-06-29T10:39:32.946Z,942.26
2018-06-29T10:40:40.888Z,942.04
2018-06-29T10:41:48.937Z,942.01
2018-06-29T10:42:56.994Z,942.22
2018-06-29T10:44:05.083Z,942.38
2018-06-29T10:45:13.275Z,942.33
2018-06-29T10:46:21.234Z,942.19
2018-06-29T10:47:29.357Z,942.29
2018-06-29T10:48:37.372Z,942.15
2018-06-29T10:49:45.446Z,941.97
2018-06-29T10:50:53.637Z,942.16
2018-06-29T10:52:01.594Z,942.16
2018-06-29T10:53:09.687Z,942.23
2018-06-29T10:54:17.738Z,942.13
2018-06-29T10:55:25.815Z,942.24
2018-06-29T10:56:34.001Z,942.10
2018-06-29T10:57:41.980Z,942.24
2018-06-29T10:58:50.040Z,942.10
2018-06-29T10:59:58.117Z,942.10
2018-06-29T11:01:06.191Z,942.11
2018-06-29T11:02:14.310Z,942.08
2018-06-29T11:03:22.389Z,942.13
2018-06-29T11:04:30.402Z,942.16
2018-06-29T11:05:38.480Z,942.14
2018-06-29T11:06:46.567Z,942.01
2018-06-29T11:07:54.685Z,941.92
2018-06-29T11:09:02.712Z,941.91
2018-06-29T11:10:10.793Z,942.04
2018-06-29T11:11:18.866Z,942.10
2018-06-29T11:12:26.901Z,942.13
2018-06-29T11:13:35.005Z,942.00
2018-06-29T11:14:43.085Z,941.97
2018-06-29T11:15:51.154Z,942.01
2018-06-29T11:16:59.216Z,942.02
2018-06-29T11:18:07.322Z,941.95
2018-06-29T11:19:15.379Z,942.01
2018-06-29T11:20:23.439Z,941.85
2018-06-29T11:21:31.524Z,941.81
2018-06-29T11:22:39.772Z,941.80
2018-06-29T11:23:47.648Z,941.79
2018-06-29T11:24:55.752Z,941.76
2018-06-29T11:26:03.811Z,941.70
2018-06-29T11:27:11.889Z,941.72
2018-06-29T11:28:20.070Z,941.80
2018-06-29T11:29:28.041Z,941.78
2018-06-29T11:30:36.113Z,941.71
2018-06-29T11:31:44.202Z,941.71
2018-06-29T11:32:52.261Z,941.73
2018-06-29T11:34:00.435Z,941.84
2018-06-29T11:35:08.405Z,941.75
2018-06-29T11:36:16.481Z,941.86
2018-06-29T11:37:24.553Z,941.81
2018-06-29T11:38:32.627Z,941.83
2018-06-29T11:39:40.748Z,941.84
2018-06-29T11:40:48.776Z,941.73
2018-06-29T11:41:56.855Z,941.71
2018-06-29T11:43:04.927Z,941.82
2018-06-29T11:44:13.031Z,941.82
2018-06-29T11:45:21.198Z,941.68
2018-06-29T11:46:29.151Z,941.59
2018-06-29T11:47:37.205Z,941.68
2018-06-29T11:48:45.354Z,941.67
2018-06-29T11:49:53.486Z,941.68
2018-06-29T11:51:01.575Z,941.79
2018-06-29T11:52:09.523Z,941.70
2018-06-29T11:53:17.577Z,941.58
2018-06-29T11:54:25.674Z,941.61
2018-06-29T11:55:33.758Z,941.59
2018-06-29T11:56:41.933Z,941.50
2018-06-29T11:57:49.910Z,941.63
2018-06-29T11:58:57.965Z,941.53
2018-06-29T12:00:06.048Z,941.57
2018-06-29T12:01:14.116Z,941.49
2018-06-29T12:02:22.304Z,941.56
2018-06-29T12:03:30.265Z,941.69
2018-06-29T12:04:38.333Z,941.55
2018-06-29T12:05:46.562Z,941.46
2018-06-29T12:06:54.501Z,941.52
2018-06-29T12:08:02.611Z,941.53
2018-06-29T12:09:10.620Z,941.49
2018-06-29T12:10:18.704Z,941.50
2018-06-29T12:11:26.769Z,941.52
2018-06-29T12:12:34.950Z,941.53
2018-06-29T12:13:42.916Z,941.51
2018-06-29T12:14:50.977Z,941.42
2018-06-29T12:15:59.075Z,941.52
2018-06-29T12:17:07.104Z,941.53
2018-06-29T12:18:15.248Z,941.56
2018-06-29T12:19:23.278Z,941.64
2018-06-29T12:20:31.358Z,941.52
2018-06-29T12:21:39.531Z,941.60
2018-06-29T12:22:47.473Z,941.62
2018-06-29T12:23:55.689Z,941.51
2018-06-29T12:25:03.641Z,941.52
2018-06-29T12:26:11.724Z,941.52
2018-06-29T12:27:19.795Z,941.50
2018-06-29T12:28:27.868Z,941.40
2018-06-29T12:29:35.986Z,941.40
2018-06-29T12:30:44.008Z,941.31
2018-06-29T12:31:52.081Z,941.36
2018-06-29T12:33:00.152Z,941.41
2018-06-29T12:34:08.262Z,941.39
2018-06-29T12:35:16.359Z,941.35
2018-06-29T12:36:24.383Z,941.45
2018-06-29T12:37:32.503Z,941.39
2018-06-29T12:38:40.529Z,941.33
2018-06-29T12:39:48.595Z,941.35
2018-06-29T12:40:56.773Z,941.36
2018-06-29T12:42:04.749Z,941.43
2018-06-29T12:43:12.828Z,941.37
2018-06-29T12:44:20.895Z,941.35
2018-06-29T12:45:28.975Z,941.30
2018-06-29T12:46:37.092Z,941.24
2018-06-29T12:47:45.117Z,941.28
2018-06-29T12:48:53.180Z,941.23
2018-06-29T12:50:01.260Z,941.28
2018-06-29T12:51:09.337Z,941.24
2018-06-29T12:52:17.501Z,941.28
2018-06-29T12:53:25.531Z,941.27
2018-06-29T12:54:33.542Z,941.27
2018-06-29T12:55:41.647Z,941.17
2018-06-29T12:56:49.694Z,941.06
2018-06-29T12:57:57.821Z,941.05
2018-06-29T12:59:05.848Z,941.12
2018-06-29T13:00:13.922Z,941.07
2018-06-29T13:01:21.985Z,941.11
2018-06-29T13:02:30.100Z,941.05
2018-06-29T13:03:38.130Z,941.08
2018-06-29T13:04:46.228Z,941.03
2018-06-29T13:05:54.293Z,940.91
2018-06-29T13:07:02.356Z,941.02
2018-06-29T13:08:10.525Z,941.03
2018-06-29T13:09:18.496Z,941.01
2018-06-29T13:10:26.572Z,941.03
2018-06-29T13:11:34.641Z,940.99
2018-06-29T13:12:42.710Z,941.05
2018-06-29T13:13:50.901Z,941.11
2018-06-29T13:14:58.869Z,941.10
2018-06-29T13:16:06.913Z,941.05
2018-06-29T13:17:15.011Z,941.01
2018-06-29T13:18:23.092Z,941.09
2018-06-29T13:19:31.264Z,941.04
2018-06-29T13:20:39.238Z,941.15
2018-06-29T13:21:47.299Z,941.13
2018-06-29T13:22:55.434Z,941.08
2018-06-29T13:24:03.459Z,941.04
2018-06-29T13:25:11.697Z,940.99
2018-06-29T13:26:19.592Z,941.06
2018-06-29T13:27:27.640Z,941.02
2018-06-29T13:28:35.742Z,940.97
2018-06-29T13:29:43.827Z,941.17
2018-06-29T13:30:52.071Z,941.16
2018-06-29T13:31:59.963Z,941.11
2018-06-29T13:33:08.022Z,941.00
2018-06-29T13:34:16.096Z,940.98
2018-06-29T13:35:24.160Z,941.09
2018-06-29T13:36:32.354Z,941.08
2018-06-29T13:37:40.431Z,941.13
2018-06-29T13:38:48.394Z,941.12
2018-06-29T13:39:56.475Z,941.12
2018-06-29T13:41:04.560Z,941.06
2018-06-29T13:42:12.775Z,941.04
2018-06-29T13:43:20.708Z,941.03
2018-06-29T13:44:28.758Z,941.05
2018-06-29T13:45:36.828Z,941.08
2018-06-29T13:46:44.911Z,941.00
2018-06-29T13:47:53.027Z,941.04
2018-06-29T13:49:01.061Z,940.99
2018-06-29T13:50:09.130Z,941.00
2018-06-29T13:51:17.191Z,940.89
2018-06-29T13:52:25.293Z,940.85
2018-06-29T13:53:33.397Z,940.88
2018-06-29T13:54:41.437Z,940.79
2018-06-29T13:55:49.514Z,940.83
2018-06-29T13:56:57.548Z,940.79
2018-06-29T13:58:05.694Z,940.80
2018-06-29T13:59:13.706Z,940.79
2018-06-29T14:00:21.795Z,940.78
2018-06-29T14:01:29.860Z,940.78
2018-06-29T14:02:37.990Z,940.78
2018-06-29T14:03:46.119Z,940.76
2018-06-29T14:04:54.067Z,940.86
2018-06-29T14:06:02.163Z,940.85
2018-06-29T14:07:10.234Z,940.85
2018-06-29T14:08:18.296Z,940.91
2018-06-29T14:09:26.430Z,940.91
2018-06-29T14:10:34.450Z,940.96